Startpagina
METAR-TAF:

METAR-TAF

Vliegvelden :

Fujairah, Verenigde Arabische Emiraten

breedte: 25-06N, lengte: 056-20E, hoogte: 28 m

Actueel weer

Dit bericht is 1 uur en het 2 minuten geleden gemaakt, om 22:00 UTC
Wind 1 kt uit het westen
Temperatuur 22°C
Vochtigheid 83%
Druk 1016 hPa
Zicht: 4000 m
Heiigheid

METAR: OMFJ 232200Z 26001KT 4000 HZ NSC 22/19 Q1016 A3000

Tijdstip: 03:02 (23:02 UTC)

Verwachting

Dit bericht is 6 uur en het 2 minuten geleden gemaakt, om 17:00 UTC
Verwachting geldig van 23 om 18 UTC tot 24 om 24 UTC
Wind 3 kt uit variabele richting
Zicht: 7000 m
Wijzigt naar
van 23 om 20 UTC tot 23 om 22 UTC
Wind 6 kt uit het westen
Tijdelijke
van 23 om 22 UTC tot 24 om 04 UTC
Zicht: 4000 m
Heiigheid
Wijzigt naar
van 24 om 07 UTC tot 24 om 09 UTC
Wind 8 kt uit het oosten
Wijzigt naar
van 24 om 16 UTC tot 24 om 18 UTC
Wind 3 kt uit variabele richting

TAF: OMFJ 231700Z 2318/2424 VRB03KT 7000 NSC BECMG 2320/2322 27006KT TEMPO 2322/2404 4000 HZ BECMG 2407/2409 09008KT BECMG 2416/2418 VRB03KT

Waarnemingen en weersverwachtingen van meer dan 4000 vliegvelden (METAR en TAF).

De beschikbare stations zijn de gele en rode punten op de kaart.

Ga met uw muis naar het station om de naam te zien.

Klik dan om waarnemingen en weersverwachtingen te zien.

kaart wijzigen: klik op de groene knoppen met een zwart kruis om in te zoomen, op de groene knop met een streepje om uit te zoomen of op de groene pijlen voor aangrenzende kaarten.


METAR-TAF: